Latest Weather Observations for Lameroo AWS

IDS60801

Issued at 7:32 pm CST Tuesday 26 July 2016 (issued every 30 minutes, with the page automatically refreshed every 10 minutes)

About weather observations | Map of weather stations | Latest weather observations for SA | Other Formats
Station Details ID: 025562 Name: AUSTIN PLAINS Lat: -35.38 Lon: 140.54 Height: 110.08 m
Data from the previous 72 hours. | See also: Recent months at Lameroo AWS
Date/Time
CST
Temp
°C
App
Temp
°C
Dew
Point
°C
Rel
Hum
%
Delta-T
°C
Wind Press
QNH
hPa
Press
MSL
hPa
Rain since
9am
mm
Dir  Spd
km/h
Gust
km/h
Spd
kts
Gust
kts
26/07:30pm 9.8 0.5 7.7 87 1.0 NW 46 61 25 33 1006.9 1007.0 3.0
26/07:13pm 9.1 2.3 7.5 90 0.8 NW 33 57 18 31 1006.4 1006.5 2.8
26/07:05pm 8.9 1.3 7.4 90 0.7 NNW 37 56 20 30 1006.4 1006.5 2.8
26/07:00pm 9.0 1.4 7.5 90 0.7 N 37 56 20 30 1005.8 1005.9 2.8
26/06:57pm 8.9 1.6 7.4 90 0.7 N 35 56 19 30 1005.5 1005.6 2.8
26/06:30pm 9.2 2.2 7.0 86 1.0 NNW 33 44 18 24 1006.9 1007.0 1.4
26/06:00pm 9.6 3.5 6.5 81 1.5 NNW 28 35 15 19 1007.3 1007.4 0.2
26/05:30pm 9.5 3.0 6.4 81 1.5 NNW 30 43 16 23 1007.5 1007.6 0.2
26/05:00pm 9.6 3.1 6.3 80 1.5 NNW 30 41 16 22 1008.2 1008.3 0.2
26/04:30pm 9.6 3.8 6.3 80 1.5 NNW 26 33 14 18 1008.7 1008.8 0.0
26/04:00pm 10.8 5.4 6.2 73 2.2 NNW 24 37 13 20 1009.1 1009.3 0.0
26/03:30pm 10.4 3.2 5.2 70 2.4 NNW 32 41 17 22 1009.5 1009.7 0.0
26/03:00pm 10.9 4.2 5.7 70 2.4 NNW 30 41 16 22 1010.2 1010.4 0.0
26/02:30pm 10.8 3.0 5.1 68 2.6 NNW 35 48 19 26 1010.6 1010.8 0.0
26/02:17pm 11.3 3.1 5.0 65 2.9 NW 37 57 20 31 1011.0 1011.2 0.0
26/02:00pm 12.1 4.9 5.7 65 3.0 NNW 33 44 18 24 1011.1 1011.3 0.0
26/01:30pm 11.1 3.1 5.6 69 2.6 NW 37 50 20 27 1012.0 1012.2 0.0
26/01:00pm 10.4 4.2 6.0 74 2.0 NW 28 35 15 19 1012.5 1012.7 0.0
26/12:30pm 10.4 3.3 6.2 75 2.0 NW 33 44 18 24 1013.3 1013.5 0.0
26/12:00pm 10.6 4.1 6.4 75 2.0 NW 30 41 16 22 1013.5 1013.7 0.0
26/11:30am 10.7 3.8 6.5 75 2.0 NW 32 39 17 21 1014.1 1014.2 0.0
26/11:00am 10.8 4.4 6.9 77 1.9 NW 30 37 16 20 1014.6 1014.7 0.0
26/10:30am 9.8 4.4 6.2 78 1.7 NNW 24 30 13 16 1015.0 1015.1 0.0
26/10:00am 9.0 4.3 6.1 82 1.3 NNW 20 26 11 14 1015.2 1015.3 0.0
26/09:30am 8.0 2.4 5.6 85 1.1 NNW 24 32 13 17 1015.4 1015.5 0.0
26/09:00am 7.2 1.9 5.0 86 1.0 NNW 22 30 12 16 1015.4 1015.5 2.8
26/08:30am 6.5 1.7 4.8 89 0.7 NNW 19 22 10 12 1015.2 1015.3 2.8
26/08:00am 5.9 1.8 4.5 91 0.6 NNW 15 19 8 10 1015.3 1015.4 2.8
26/07:30am 5.0 2.0 4.0 93 0.4 NW 9 11 5 6 1015.4 1015.5 2.8
26/07:00am 4.6 1.1 3.4 92 0.5 NW 11 13 6 7 1015.3 1015.4 2.8
26/06:30am 4.3 1.1 3.1 92 0.5 W 9 15 5 8 1015.1 1015.2 2.8
26/06:00am 4.0 0.0 2.8 92 0.5 NW 13 15 7 8 1015.0 1015.1 2.8
26/05:30am 4.0 -0.4 2.8 92 0.5 WNW 15 17 8 9 1014.8 1014.9 2.8
26/05:00am 3.9 -0.2 2.4 90 0.6 NW 13 17 7 9 1014.7 1014.8 2.8
26/04:30am 4.5 -0.6 2.8 89 0.7 WNW 19 22 10 12 1014.4 1014.5 2.8
26/04:00am 4.3 -0.1 2.5 88 0.7 WNW 15 19 8 10 1014.7 1014.8 2.8
26/03:30am 3.8 -1.1 2.2 89 0.6 WNW 17 19 9 10 1014.5 1014.6 2.8
26/03:00am 4.5 -0.3 2.4 86 0.8 WNW 17 20 9 11 1014.9 1015.0 2.8
26/02:30am 4.6 -0.6 2.6 87 0.8 WNW 19 22 10 12 1014.7 1014.8 2.8
26/02:00am 4.3 0.3 2.7 89 0.7 NW 13 15 7 8 1015.3 1015.4 2.8
26/01:30am 4.9 -0.2 2.9 87 0.8 WNW 19 22 10 12 1014.9 1015.0 2.8
26/01:00am 4.8 0.5 3.1 89 0.7 WNW 15 19 8 10 1015.2 1015.3 2.8
26/12:30am 4.9 0.7 3.6 91 0.5 WNW 15 19 8 10 1015.2 1015.3 2.8
26/12:00am 5.6 1.0 3.9 89 0.7 WNW 17 20 9 11 1014.9 1015.0 2.8
 
Date/Time
CST
Temp
°C
App
Temp
°C
Dew
Point
°C
Rel
Hum
%
Delta-T
°C
Wind Press
QNH
hPa
Press
MSL
hPa
Rain since
9am
mm
Dir  Spd
km/h
Gust
km/h
Spd
kts
Gust
kts
25/11:30pm 5.9 1.3 3.9 87 0.9 W 17 20 9 11 1015.1 1015.2 2.8
25/11:00pm 6.6 1.5 3.9 83 1.2 W 20 26 11 14 1015.1 1015.2 2.8
25/10:30pm 7.2 1.0 4.3 82 1.3 W 26 35 14 19 1014.7 1014.8 2.8
25/10:03pm 7.6 1.1 4.6 81 1.3 W 28 50 15 27 1014.7 1014.8 2.8
25/10:00pm 7.2 1.4 4.5 83 1.2 W 24 33 13 18 1014.7 1014.8 2.8
25/09:30pm 7.5 1.8 4.8 83 1.2 W 24 30 13 16 1014.5 1014.6 2.8
25/09:00pm 8.2 1.1 5.7 84 1.1 WSW 32 48 17 26 1014.6 1014.7 2.6
25/08:56pm 8.1 1.8 5.6 84 1.1 W 28 48 15 26 1014.6 1014.7 2.6
25/08:30pm 8.0 2.5 5.8 86 1.0 W 24 32 13 17 1013.9 1014.0 2.6
25/08:00pm 8.4 2.2 6.2 86 1.0 W 28 37 15 20 1013.5 1013.7 2.6
25/07:30pm 8.7 2.6 6.5 86 1.0 W 28 35 15 19 1012.9 1013.1 2.6
25/07:00pm 9.4 3.1 7.5 88 0.9 W 30 43 16 23 1012.6 1012.8 2.6
25/06:30pm 9.4 5.3 8.0 91 0.7 WNW 19 26 10 14 1011.9 1012.1 2.6
25/06:00pm 9.8 5.8 8.4 91 0.7 WNW 19 22 10 12 1011.6 1011.8 2.6
25/05:30pm 10.0 4.4 8.6 91 0.7 W 28 37 15 20 1011.2 1011.4 2.6
25/05:00pm 9.9 3.8 9.9 100 0.0 WSW 32 43 17 23 1010.8 1011.0 2.6
25/04:30pm 10.2 2.5 8.6 90 0.8 W 39 52 21 28 1010.3 1010.5 2.4
25/04:00pm 11.2 3.3 9.3 88 1.0 WNW 41 52 22 28 1009.6 1009.8 0.2
25/03:46pm 11.7 3.7 8.9 83 1.4 NW 41 59 22 32 1009.5 1009.7 0.0
25/03:30pm 12.9 5.1 8.2 73 2.3 NW 39 56 21 30 1009.3 1009.5 0.0
25/03:11pm 12.5 4.7 8.2 75 2.1 NW 39 57 21 31 1009.3 1009.5 0.0
25/03:00pm 12.2 4.0 8.3 77 1.9 NW 41 54 22 29 1009.4 1009.6 0.0
25/02:30pm 13.4 4.5 7.6 68 2.9 NW 44 67 24 36 1009.5 1009.7 0.0
25/02:28pm 13.6 5.3 7.6 67 3.0 NW 41 67 22 36 1009.5 1009.7 0.0
25/02:00pm 13.0 4.6 7.5 69 2.7 NW 41 52 22 28 1010.0 1010.2 0.0
25/01:30pm 13.3 5.0 7.7 69 2.8 NW 41 56 22 30 1010.4 1010.6 0.0
25/01:11pm 12.8 4.4 7.3 69 2.7 NW 41 61 22 33 1010.7 1010.9 0.0
25/01:00pm 13.2 4.2 7.4 68 2.8 NW 44 57 24 31 1010.8 1011.0 0.0
25/12:30pm 12.7 3.2 6.5 66 3.0 NW 46 59 25 32 1011.4 1011.6 0.0
25/12:00pm 12.6 3.7 6.9 68 2.8 NW 43 57 23 31 1011.9 1012.1 0.0
25/11:30am 12.3 4.1 8.0 75 2.1 NW 41 52 22 28 1012.6 1012.8 0.0
25/11:00am 11.9 4.9 8.4 79 1.7 NW 35 44 19 24 1013.2 1013.4 0.0
25/10:30am 11.1 5.1 8.5 84 1.3 NW 30 43 16 23 1013.9 1014.0 0.0
25/10:00am 9.9 4.8 7.5 85 1.2 NW 24 32 13 17 1014.2 1014.3 0.0
25/09:30am 9.2 3.6 7.3 88 0.9 NW 26 33 14 18 1014.1 1014.2 0.0
25/09:00am 8.6 2.9 6.6 87 0.9 NW 26 33 14 18 1013.9 1014.0 7.4
25/08:30am 7.1 2.4 5.3 88 0.8 NW 19 26 10 14 1013.8 1013.9 7.4
25/08:00am 5.8 1.3 4.4 91 0.6 NW 17 22 9 12 1014.0 1014.1 7.4
25/07:30am 5.1 0.2 3.9 92 0.5 NW 19 20 10 11 1013.9 1014.0 7.4
25/07:00am 5.5 1.0 4.2 91 0.6 WNW 17 20 9 11 1013.4 1013.6 7.4
25/06:30am 6.0 1.6 4.6 91 0.6 WNW 17 19 9 10 1013.2 1013.4 7.4
25/06:00am 6.5 1.5 4.8 89 0.7 W 20 24 11 13 1013.2 1013.4 7.4
25/05:30am 6.3 1.0 4.8 90 0.7 W 22 26 12 14 1013.0 1013.2 7.4
25/05:00am 6.5 1.2 5.1 91 0.6 WNW 22 28 12 15 1012.7 1012.9 7.4
25/04:30am 6.7 1.5 5.5 92 0.5 W 22 26 12 14 1012.4 1012.6 7.4
25/04:00am 7.4 1.9 6.0 91 0.6 W 24 30 13 16 1012.3 1012.5 7.4
25/03:30am 7.8 1.7 6.4 91 0.6 W 28 37 15 20 1012.2 1012.4 7.4
25/03:00am 7.8 2.5 6.6 92 0.6 W 24 35 13 19 1012.1 1012.3 7.4
25/02:30am 8.3 1.6 7.2 93 0.5 W 32 41 17 22 1011.9 1012.1 7.4
25/02:00am 8.4 1.7 7.3 93 0.5 W 32 41 17 22 1011.9 1012.1 6.8
25/01:30am 8.6 0.6 7.5 93 0.5 W 39 50 21 27 1011.6 1011.8 6.6
25/01:00am 8.5 0.9 7.4 93 0.5 W 37 48 20 26 1011.0 1011.2 6.6
25/12:30am 8.5 0.0 8.4 99 0.0 W 43 59 23 32 1010.9 1011.1 6.4
25/12:00am 8.6 1.0 7.4 92 0.6 W 37 54 20 29 1010.5 1010.7 5.6
 
Date/Time
CST
Temp
°C
App
Temp
°C
Dew
Point
°C
Rel
Hum
%
Delta-T
°C
Wind Press
QNH
hPa
Press
MSL
hPa
Rain since
9am
mm
Dir  Spd
km/h
Gust
km/h
Spd
kts
Gust
kts
24/11:30pm 8.9 1.3 7.4 90 0.7 W 37 52 20 28 1010.2 1010.4 5.0
24/11:00pm 9.3 1.2 7.1 86 1.0 WNW 39 50 21 27 1009.7 1009.9 4.4
24/10:30pm 9.3 1.6 7.1 86 1.0 WNW 37 50 20 27 1009.3 1009.5 4.4
24/10:00pm 9.2 2.3 7.2 87 0.9 WNW 33 43 18 23 1009.1 1009.3 4.4
24/09:30pm 9.0 2.6 7.0 87 0.9 WNW 30 39 16 21 1008.7 1008.8 4.4
24/09:00pm 8.7 1.7 6.7 87 0.9 WNW 33 43 18 23 1008.1 1008.2 4.4
24/08:30pm 8.8 0.7 6.8 87 0.9 WNW 39 50 21 27 1007.6 1007.7 4.4
24/08:00pm 8.9 0.3 6.5 85 1.1 WNW 41 57 22 31 1007.2 1007.3 4.4
24/07:30pm 8.9 0.3 6.7 86 1.0 WNW 41 56 22 30 1006.9 1007.0 4.4
24/07:00pm 8.4 1.0 6.7 89 0.8 WNW 35 46 19 25 1006.8 1006.9 4.4
24/06:30pm 8.1 3.1 6.6 90 0.7 WNW 22 28 12 15 1007.0 1007.1 4.4
24/06:00pm 8.5 3.4 6.1 85 1.1 WNW 22 28 12 15 1006.7 1006.8 2.6
24/05:30pm 9.1 1.1 5.7 79 1.6 WNW 37 50 20 27 1006.3 1006.4 2.4
24/05:00pm 9.7 3.0 5.5 75 1.9 NW 30 39 16 21 1006.4 1006.5 2.0
24/04:30pm 9.8 3.0 5.2 73 2.1 WNW 30 39 16 21 1006.3 1006.4 2.0
24/04:00pm 9.2 1.7 4.6 73 2.1 W 33 46 18 25 1006.3 1006.4 2.0
24/03:30pm 10.3 2.5 5.1 70 2.4 WNW 35 50 19 27 1006.0 1006.1 2.0
24/03:00pm 10.2 3.4 6.9 80 1.6 WNW 32 41 17 22 1006.2 1006.3 2.0
24/02:30pm 10.8 2.6 6.6 75 2.0 WNW 39 50 21 27 1006.0 1006.1 1.6
24/02:00pm 9.7 2.6 6.2 79 1.6 NW 33 44 18 24 1006.4 1006.5 1.6
24/01:30pm 8.7 1.7 6.0 83 1.2 NW 32 39 17 21 1006.7 1006.8 1.6
24/01:00pm 8.1 1.5 5.9 86 1.0 WNW 30 43 16 23 1006.9 1007.0 1.6
24/12:34pm 8.1 -1.0 5.7 85 1.1 NW 43 63 23 34 1007.3 1007.4 1.4
24/12:30pm 8.5 -0.1 6.5 87 0.9 NW 41 56 22 30 1007.4 1007.5 1.2
24/12:00pm 9.4 1.0 5.8 78 1.7 NW 39 48 21 26 1007.4 1007.5 0.2
24/11:45am 10.3 1.4 5.3 71 2.3 NW 41 59 22 32 1007.5 1007.6 0.0
24/11:30am 10.6 1.7 4.9 68 2.6 NNW 41 52 22 28 1007.5 1007.6 0.0
24/11:00am 10.9 2.5 5.7 70 2.4 NNW 39 48 21 26 1008.1 1008.2 0.0
24/10:30am 10.5 3.9 5.9 73 2.1 NNW 30 41 16 22 1008.3 1008.4 0.0
24/10:00am 8.9 3.3 5.5 79 1.5 N 24 33 13 18 1008.9 1009.1 0.0
24/09:30am 7.8 1.3 4.7 81 1.4 N 28 33 15 18 1009.0 1009.2 0.0
24/09:00am 6.9 0.3 4.2 83 1.2 N 28 37 15 20 1009.1 1009.3 0.2
24/08:30am 6.7 0.5 4.5 86 1.0 N 26 33 14 18 1009.4 1009.6 0.2
24/08:00am 4.9 -0.7 3.4 90 0.6 N 22 28 12 15 1009.4 1009.6 0.2
24/07:30am 3.9 -1.2 3.2 95 0.3 N 19 22 10 12 1009.9 1010.1 0.2
24/07:00am 3.3 -1.8 3.3 100 0.0 N 19 20 10 11 1010.1 1010.3 0.2
24/06:30am 3.3 -0.6 3.3 100 0.0 N 13 17 7 9 1010.4 1010.6 0.2
24/06:00am 3.3 - - - - N 13 17 7 9 1010.4 1010.6 0.2
24/05:30am 3.3 - - - - N 17 20 9 11 1010.1 1010.3 0.2
24/05:00am 3.2 -1.1 3.2 100 0.0 N 15 19 8 10 1010.7 1010.9 0.2
24/04:30am 3.5 -0.6 2.3 92 0.5 N 13 15 7 8 1010.8 1011.0 0.2
24/04:00am 3.9 -0.1 2.6 91 0.5 N 13 15 7 8 1011.2 1011.4 0.2
24/03:30am 3.7 0.1 2.7 93 0.4 N 11 15 6 8 1011.6 1011.8 0.2
24/03:00am 3.5 0.2 2.5 93 0.4 N 9 13 5 7 1012.2 1012.4 0.2
24/02:30am 3.8 0.1 2.6 92 0.5 N 11 11 6 6 1012.7 1012.9 0.2
24/02:00am 4.7 1.6 3.4 91 0.5 NNW 9 11 5 6 1013.2 1013.4 0.2
24/01:30am 5.7 2.7 4.3 91 0.6 NNW 9 11 5 6 1013.8 1013.9 0.2
24/01:00am 5.9 2.5 4.2 89 0.7 NNW 11 15 6 8 1014.0 1014.1 0.2
24/12:30am 6.4 3.5 4.9 90 0.7 NNW 9 11 5 6 1014.1 1014.2 0.2
24/12:00am 6.5 3.7 5.1 91 0.6 NNW 9 11 5 6 1014.5 1014.6 0.2
 
Date/Time
CST
Temp
°C
App
Temp
°C
Dew
Point
°C
Rel
Hum
%
Delta-T
°C
Wind Press
QNH
hPa
Press
MSL
hPa
Rain since
9am
mm
Dir  Spd
km/h
Gust
km/h
Spd
kts
Gust
kts
23/11:30pm 6.4 3.6 5.0 91 0.6 NNW 9 11 5 6 1014.4 1014.5 0.2
23/11:00pm 6.1 3.6 4.7 91 0.6 NNW 7 9 4 5 1014.6 1014.7 0.0
23/10:30pm 6.1 3.6 4.6 90 0.7 NW 7 7 4 4 1014.7 1014.8 0.0
23/10:00pm 5.8 3.4 4.4 91 0.6 WNW 6 6 3 3 1014.9 1015.0 0.0
23/09:30pm 5.9 3.4 4.5 91 0.6 NW 7 7 4 4 1015.1 1015.2 0.0
23/09:00pm 6.0 3.5 4.6 91 0.6 NW 7 9 4 5 1015.1 1015.2 0.0
23/08:30pm 6.0 3.5 4.6 91 0.6 WNW 7 7 4 4 1015.2 1015.3 0.0
23/08:00pm 5.9 3.4 4.5 91 0.6 WSW 7 7 4 4 1015.0 1015.1 0.0

Other Formats:

Comma delimited format used in spreadsheet applications
http://www.bom.gov.au/fwo/IDS60801/IDS60801.94690.axf

JavaScript Object Notation format (JSON) in row-major order
http://www.bom.gov.au/fwo/IDS60801/IDS60801.94690.json